createdAt,value
2022-09-21T00:01:13.748Z,42.59
2022-09-21T00:03:43.420Z,42.69
2022-09-21T00:06:20.640Z,42.46
2022-09-21T00:08:48.071Z,42.53
2022-09-21T00:11:17.532Z,42.50
2022-09-21T00:13:45.898Z,42.65
2022-09-21T00:16:13.069Z,42.44
2022-09-21T00:18:39.768Z,42.55
2022-09-21T00:21:08.831Z,42.59
2022-09-21T00:23:36.126Z,42.63
2022-09-21T00:26:10.380Z,42.43
2022-09-21T00:28:37.031Z,42.41
2022-09-21T00:31:05.121Z,42.43
2022-09-21T00:33:32.222Z,42.48
2022-09-21T00:36:04.530Z,42.17
2022-09-21T00:38:31.128Z,42.46
2022-09-21T00:40:58.169Z,42.48
2022-09-21T00:43:24.789Z,42.49
2022-09-21T00:46:06.640Z,42.54
2022-09-21T00:48:33.817Z,42.48
2022-09-21T00:51:06.341Z,42.49
2022-09-21T00:53:33.885Z,42.49
2022-09-21T00:56:02.856Z,42.33
2022-09-21T00:58:46.451Z,42.37
2022-09-21T01:01:16.208Z,42.34
2022-09-21T01:03:45.655Z,42.27
2022-09-21T01:06:17.504Z,42.31
2022-09-21T01:08:47.000Z,42.28
2022-09-21T01:11:29.504Z,42.38
2022-09-21T01:14:24.285Z,42.13
2022-09-21T01:17:03.995Z,42.23
2022-09-21T01:19:39.819Z,42.42
2022-09-21T01:22:20.272Z,42.28
2022-09-21T01:25:13.400Z,42.25
2022-09-21T01:27:53.924Z,42.31
2022-09-21T01:30:22.791Z,42.17
2022-09-21T01:32:57.779Z,42.34
2022-09-21T01:35:39.835Z,42.19
2022-09-21T01:38:17.909Z,42.20
2022-09-21T01:40:50.987Z,42.19
2022-09-21T01:43:26.234Z,42.33
2022-09-21T01:45:57.300Z,42.25
2022-09-21T01:48:25.622Z,42.12
2022-09-21T01:50:56.323Z,42.08
2022-09-21T01:53:32.207Z,42.26
2022-09-21T01:56:05.731Z,42.27
2022-09-21T01:58:42.019Z,42.55
2022-09-21T02:01:12.815Z,42.17
2022-09-21T02:03:43.471Z,42.29
2022-09-21T02:06:11.975Z,42.18
2022-09-21T02:08:39.174Z,42.29
2022-09-21T02:11:07.835Z,42.19
2022-09-21T02:13:39.281Z,42.25
2022-09-21T02:16:09.034Z,42.30
2022-09-21T02:19:11.222Z,41.99
2022-09-21T02:22:00.020Z,42.22
2022-09-21T02:24:29.689Z,42.19
2022-09-21T02:27:16.471Z,42.14
2022-09-21T02:30:01.781Z,42.14
2022-09-21T02:33:01.149Z,42.22
2022-09-21T02:35:52.032Z,42.24
2022-09-21T02:38:37.123Z,42.15
2022-09-21T02:41:09.652Z,42.23
2022-09-21T02:43:51.701Z,42.24
2022-09-21T02:46:42.824Z,42.17
2022-09-21T02:49:20.826Z,42.02
2022-09-21T02:51:51.128Z,42.10
2022-09-21T02:54:22.967Z,42.01
2022-09-21T02:56:51.441Z,42.07
2022-09-21T02:59:18.403Z,41.91
2022-09-21T03:01:45.240Z,41.85
2022-09-21T03:04:11.891Z,42.13
2022-09-21T03:06:38.698Z,42.05
2022-09-21T03:09:05.404Z,42.03
2022-09-21T03:11:32.294Z,42.13
2022-09-21T03:13:59.638Z,42.09
2022-09-21T03:16:26.297Z,41.98
2022-09-21T03:18:52.844Z,41.93
2022-09-21T03:21:19.392Z,41.99
2022-09-21T03:23:45.891Z,42.01
2022-09-21T03:26:12.492Z,41.95
2022-09-21T03:28:39.408Z,41.85
2022-09-21T03:31:06.712Z,41.87
2022-09-21T03:33:33.312Z,41.92
2022-09-21T03:35:59.907Z,42.07
2022-09-21T03:38:26.851Z,42.02
2022-09-21T03:40:57.824Z,42.01
2022-09-21T03:43:25.167Z,42.03
2022-09-21T03:45:52.096Z,41.93
2022-09-21T03:48:18.887Z,41.94
2022-09-21T03:50:45.530Z,41.96
2022-09-21T03:53:12.200Z,42.02
2022-09-21T03:55:38.763Z,41.83
2022-09-21T03:58:05.849Z,41.89
2022-09-21T04:00:33.036Z,41.90
2022-09-21T04:02:59.928Z,42.12
2022-09-21T04:05:27.676Z,41.76
2022-09-21T04:07:55.338Z,41.93
2022-09-21T04:10:27.034Z,41.88
2022-09-21T04:12:57.799Z,41.81
2022-09-21T04:15:24.422Z,42.01
2022-09-21T04:17:52.372Z,41.81
2022-09-21T04:20:20.084Z,41.86
2022-09-21T04:22:47.464Z,41.89
2022-09-21T04:25:15.359Z,41.83
2022-09-21T04:27:41.943Z,41.90
2022-09-21T04:30:11.623Z,41.72
2022-09-21T04:32:38.155Z,41.93
2022-09-21T04:35:05.238Z,41.85
2022-09-21T04:37:31.752Z,41.92
2022-09-21T04:39:58.567Z,41.73
2022-09-21T04:42:25.128Z,41.76
2022-09-21T04:44:51.680Z,41.82
2022-09-21T04:47:19.339Z,41.80
2022-09-21T04:49:45.895Z,41.83
2022-09-21T04:52:15.853Z,41.93
2022-09-21T04:54:46.084Z,41.84
2022-09-21T04:57:13.151Z,41.96
2022-09-21T04:59:39.700Z,41.86
2022-09-21T05:02:06.532Z,41.96
2022-09-21T05:04:33.227Z,41.95
2022-09-21T05:06:59.794Z,41.92
2022-09-21T05:09:44.987Z,42.14
2022-09-21T05:12:11.508Z,41.89
2022-09-21T05:14:37.991Z,42.24
2022-09-21T05:17:04.624Z,42.20
2022-09-21T05:19:31.115Z,42.31
2022-09-21T05:21:57.684Z,42.64
2022-09-21T05:24:24.920Z,42.41
2022-09-21T05:26:51.509Z,42.48
2022-09-21T05:29:18.404Z,42.54
2022-09-21T05:32:03.271Z,42.72
2022-09-21T05:35:06.108Z,42.73
2022-09-21T05:37:38.649Z,42.74
2022-09-21T05:40:06.742Z,42.73
2022-09-21T05:42:33.647Z,42.88
2022-09-21T05:45:00.786Z,42.91
2022-09-21T05:47:44.447Z,42.71
2022-09-21T05:50:29.628Z,42.75
2022-09-21T05:53:14.504Z,42.68
2022-09-21T05:55:57.911Z,42.73
2022-09-21T05:58:27.133Z,42.64
2022-09-21T06:01:15.455Z,42.78
2022-09-21T06:03:42.776Z,42.78
2022-09-21T06:06:09.996Z,42.77
2022-09-21T06:08:39.739Z,42.75
2022-09-21T06:11:06.235Z,42.89
2022-09-21T06:13:32.901Z,43.22
2022-09-21T06:16:03.356Z,43.16
2022-09-21T06:18:30.061Z,43.05
2022-09-21T06:20:56.555Z,43.15
2022-09-21T06:23:23.388Z,43.30
2022-09-21T06:25:56.070Z,43.20
2022-09-21T06:28:25.234Z,43.22
2022-09-21T06:30:53.175Z,43.19
2022-09-21T06:33:23.368Z,43.45
2022-09-21T06:35:55.185Z,43.27
2022-09-21T06:38:22.073Z,43.40
2022-09-21T06:40:49.812Z,43.31
2022-09-21T06:43:16.567Z,43.60
2022-09-21T06:45:43.507Z,43.49
2022-09-21T06:48:10.223Z,44.14
2022-09-21T06:50:36.807Z,44.27
2022-09-21T06:53:03.774Z,44.55
2022-09-21T06:55:31.529Z,44.66
2022-09-21T06:58:02.914Z,44.77
2022-09-21T07:00:30.843Z,45.03
2022-09-21T07:02:57.760Z,45.38
2022-09-21T07:05:24.710Z,45.41
2022-09-21T07:07:59.185Z,45.67
2022-09-21T07:10:26.218Z,45.69
2022-09-21T07:12:52.879Z,45.89
2022-09-21T07:15:21.325Z,46.09
2022-09-21T07:17:52.539Z,46.06
2022-09-21T07:20:19.304Z,45.94
2022-09-21T07:22:45.775Z,46.09
2022-09-21T07:25:12.473Z,46.04
2022-09-21T07:27:39.140Z,46.35
2022-09-21T07:30:07.094Z,46.14
2022-09-21T07:32:33.746Z,46.39
2022-09-21T07:35:00.785Z,46.36
2022-09-21T07:37:29.776Z,46.27
2022-09-21T07:39:56.457Z,46.26
2022-09-21T07:42:24.077Z,46.49
2022-09-21T07:44:51.290Z,46.46
2022-09-21T07:47:18.629Z,46.48
2022-09-21T07:49:49.109Z,46.35
2022-09-21T07:52:15.880Z,46.48
2022-09-21T07:54:42.493Z,46.50
2022-09-21T07:57:27.754Z,46.35
2022-09-21T07:59:57.147Z,46.33
2022-09-21T08:02:27.110Z,46.32
2022-09-21T08:04:54.088Z,46.44
2022-09-21T08:07:20.692Z,46.54
2022-09-21T08:09:49.375Z,46.49
2022-09-21T08:12:18.599Z,46.49
2022-09-21T08:14:45.603Z,45.10
2022-09-21T08:17:12.376Z,43.88
2022-09-21T08:19:39.122Z,43.11
2022-09-21T08:22:06.427Z,42.85
2022-09-21T08:24:33.494Z,42.24
2022-09-21T08:27:00.132Z,42.08
2022-09-21T08:29:26.947Z,42.11
2022-09-21T08:31:53.708Z,41.87
2022-09-21T08:34:20.348Z,41.96
2022-09-21T08:36:47.601Z,41.91
2022-09-21T08:39:15.408Z,41.81
2022-09-21T08:42:03.100Z,41.82
2022-09-21T08:44:39.580Z,41.72
2022-09-21T08:47:45.204Z,41.82
2022-09-21T08:50:22.254Z,41.62
2022-09-21T08:52:52.114Z,41.59
2022-09-21T08:55:20.777Z,41.67
2022-09-21T08:57:47.492Z,41.77
2022-09-21T09:00:16.737Z,41.67
2022-09-21T09:02:49.120Z,41.60
2022-09-21T09:05:33.773Z,41.47
2022-09-21T09:08:03.110Z,41.87
2022-09-21T09:10:43.800Z,41.79
2022-09-21T09:13:19.251Z,42.03
2022-09-21T09:15:52.249Z,42.03
2022-09-21T09:18:25.512Z,42.15
2022-09-21T09:21:03.757Z,42.19
2022-09-21T09:23:49.807Z,42.49
2022-09-21T09:26:25.436Z,42.55
2022-09-21T09:28:58.748Z,43.15
2022-09-21T09:31:29.623Z,43.08
2022-09-21T09:34:07.906Z,43.14
2022-09-21T09:36:57.285Z,43.33
2022-09-21T09:39:23.974Z,43.38
2022-09-21T09:42:02.727Z,43.26
2022-09-21T09:44:34.841Z,43.24
2022-09-21T09:47:29.714Z,43.17
2022-09-21T09:50:25.002Z,43.39
2022-09-21T09:52:57.803Z,43.25
2022-09-21T09:55:39.920Z,43.26
2022-09-21T09:58:22.595Z,43.58
2022-09-21T10:00:53.312Z,43.52
2022-09-21T10:03:23.331Z,43.35
2022-09-21T10:05:50.802Z,43.45
2022-09-21T10:08:36.864Z,43.08
2022-09-21T10:11:04.147Z,42.92
2022-09-21T10:13:33.760Z,43.04
2022-09-21T10:16:11.283Z,43.00
2022-09-21T10:18:39.753Z,43.23
2022-09-21T10:21:09.183Z,43.14
2022-09-21T10:23:38.428Z,43.03
2022-09-21T10:26:07.647Z,43.08
2022-09-21T10:28:35.331Z,43.29
2022-09-21T10:31:31.221Z,43.02
2022-09-21T10:34:03.934Z,43.09
2022-09-21T10:36:37.647Z,43.09
2022-09-21T10:39:18.708Z,43.24
2022-09-21T10:41:50.589Z,43.21
2022-09-21T10:44:20.179Z,43.16
2022-09-21T10:46:50.233Z,43.17
2022-09-21T10:49:28.885Z,43.08
2022-09-21T10:51:59.126Z,43.17
2022-09-21T10:54:33.769Z,43.05
2022-09-21T10:57:04.219Z,43.26
2022-09-21T10:59:37.249Z,43.17
2022-09-21T11:02:32.984Z,43.29
2022-09-21T11:05:16.350Z,43.39
2022-09-21T11:07:52.319Z,43.27
2022-09-21T11:10:46.387Z,43.45
2022-09-21T11:13:54.346Z,43.30
2022-09-21T11:16:30.179Z,43.30
2022-09-21T11:19:05.941Z,43.40
2022-09-21T11:21:38.455Z,43.38
2022-09-21T11:24:24.966Z,42.83
2022-09-21T11:27:04.257Z,42.62
2022-09-21T11:29:53.840Z,42.75
2022-09-21T11:32:55.120Z,42.60
2022-09-21T11:35:58.648Z,42.84
2022-09-21T11:38:43.769Z,43.00
2022-09-21T11:41:15.613Z,42.98
2022-09-21T11:44:16.358Z,42.87
2022-09-21T11:46:43.880Z,42.98
2022-09-21T11:49:41.922Z,42.88
2022-09-21T11:52:26.715Z,42.70
2022-09-21T11:55:08.155Z,43.12
2022-09-21T11:57:54.205Z,43.17
2022-09-21T12:00:23.471Z,42.98
2022-09-21T12:03:13.116Z,42.92
2022-09-21T12:05:56.051Z,42.98
2022-09-21T12:08:44.448Z,42.97
2022-09-21T12:11:34.959Z,43.28
2022-09-21T12:14:23.784Z,43.04
2022-09-21T12:17:18.381Z,42.86
2022-09-21T12:19:54.387Z,42.82
2022-09-21T12:22:29.310Z,42.64
2022-09-21T12:25:02.618Z,42.37
2022-09-21T12:27:41.511Z,42.85
2022-09-21T12:30:29.230Z,42.74
2022-09-21T12:33:16.232Z,42.67
2022-09-21T12:35:47.846Z,43.07
2022-09-21T12:38:23.518Z,42.98
2022-09-21T12:40:59.755Z,42.94
2022-09-21T12:43:41.470Z,43.11
2022-09-21T12:46:15.110Z,43.06
2022-09-21T12:48:45.854Z,43.15
2022-09-21T12:51:28.321Z,43.30
2022-09-21T12:53:59.066Z,43.31
2022-09-21T12:56:45.067Z,43.20
2022-09-21T12:59:24.763Z,43.37
2022-09-21T13:01:57.337Z,43.30
2022-09-21T13:04:46.352Z,43.42
2022-09-21T13:10:22.102Z,43.32
2022-09-21T13:13:02.130Z,43.53
2022-09-21T13:15:32.564Z,43.70
2022-09-21T13:18:02.852Z,43.61
2022-09-21T13:20:36.590Z,43.74
2022-09-21T13:23:04.679Z,43.75
2022-09-21T13:25:38.163Z,43.70
2022-09-21T13:28:19.804Z,43.78
2022-09-21T13:31:09.950Z,43.84
2022-09-21T13:34:19.463Z,43.96
2022-09-21T13:37:11.746Z,43.86
2022-09-21T13:39:44.503Z,43.96
2022-09-21T13:42:29.841Z,44.15
2022-09-21T13:45:19.367Z,43.99
2022-09-21T13:47:53.203Z,43.90
2022-09-21T13:50:43.478Z,43.91
2022-09-21T13:53:29.919Z,44.01
2022-09-21T13:56:24.830Z,44.11
2022-09-21T13:58:57.698Z,44.02
2022-09-21T14:01:46.674Z,44.12
2022-09-21T14:04:25.716Z,44.15
2022-09-21T14:06:54.815Z,44.21
2022-09-21T14:09:31.588Z,44.15
2022-09-21T14:12:02.573Z,44.19
2022-09-21T14:14:41.475Z,43.99
2022-09-21T14:17:34.435Z,44.08
2022-09-21T14:20:01.241Z,44.03
2022-09-21T14:22:28.057Z,44.04
2022-09-21T14:25:27.021Z,44.04
2022-09-21T14:27:59.629Z,44.08
2022-09-21T14:30:32.081Z,44.12
2022-09-21T14:33:02.280Z,43.88
2022-09-21T14:35:56.556Z,44.08
2022-09-21T14:38:30.387Z,43.97
2022-09-21T14:41:07.530Z,43.83
2022-09-21T14:43:37.375Z,44.00
2022-09-21T14:46:38.439Z,43.74
2022-09-21T14:49:26.944Z,44.01
2022-09-21T14:52:13.341Z,44.07
2022-09-21T14:54:59.062Z,44.01
2022-09-21T14:57:55.985Z,44.09
2022-09-21T15:00:26.571Z,44.11
2022-09-21T15:03:39.014Z,44.08
2022-09-21T15:06:32.808Z,43.83
2022-09-21T15:09:17.923Z,43.72
2022-09-21T15:11:50.915Z,43.64
2022-09-21T15:14:59.778Z,43.81
2022-09-21T15:17:29.921Z,43.75
2022-09-21T15:20:13.038Z,43.72
2022-09-21T15:22:43.320Z,43.71
2022-09-21T15:25:13.819Z,43.62
2022-09-21T15:27:46.651Z,43.49
2022-09-21T15:30:22.317Z,43.36
2022-09-21T15:32:55.707Z,43.25
2022-09-21T15:35:29.157Z,43.23
2022-09-21T15:37:57.184Z,43.06
2022-09-21T15:40:50.165Z,42.95
2022-09-21T15:43:38.737Z,42.88
2022-09-21T15:46:07.701Z,43.01
2022-09-21T15:48:38.234Z,43.03
2022-09-21T15:51:24.661Z,42.97
2022-09-21T15:53:55.780Z,43.11
2022-09-21T15:56:25.936Z,42.95
2022-09-21T15:59:08.709Z,42.63
2022-09-21T16:01:50.786Z,42.54
2022-09-21T16:04:23.375Z,42.45
2022-09-21T16:07:24.839Z,42.54
2022-09-21T16:09:51.820Z,42.61
2022-09-21T16:12:41.746Z,42.93
2022-09-21T16:15:38.908Z,42.87
2022-09-21T16:18:06.937Z,42.94
2022-09-21T16:20:47.419Z,43.15
2022-09-21T16:23:17.355Z,43.27
2022-09-21T16:25:44.980Z,43.36
2022-09-21T16:28:15.417Z,43.46
2022-09-21T16:30:51.096Z,43.37
2022-09-21T16:33:41.291Z,43.32
2022-09-21T16:36:18.178Z,43.57
2022-09-21T16:38:47.038Z,43.76
2022-09-21T16:41:14.528Z,43.76
2022-09-21T16:43:43.596Z,43.65
2022-09-21T16:46:11.046Z,44.00
2022-09-21T16:48:39.997Z,43.91
2022-09-21T16:51:12.834Z,44.15
2022-09-21T16:53:39.395Z,44.22
2022-09-21T16:56:06.991Z,44.22
2022-09-21T16:58:34.922Z,44.18
2022-09-21T17:01:04.296Z,44.09
2022-09-21T17:03:34.730Z,44.11
2022-09-21T17:06:02.505Z,44.36
2022-09-21T17:08:30.253Z,44.25
2022-09-21T17:10:58.492Z,44.23
2022-09-21T17:13:25.059Z,44.47
2022-09-21T17:15:52.033Z,44.21
2022-09-21T17:18:18.570Z,44.28
2022-09-21T17:20:45.768Z,44.27
2022-09-21T17:23:12.572Z,44.29
2022-09-21T17:25:39.242Z,44.37
2022-09-21T17:28:26.212Z,44.45
2022-09-21T17:30:54.136Z,44.50
2022-09-21T17:33:21.443Z,44.32
2022-09-21T17:35:51.034Z,44.41
2022-09-21T17:38:18.143Z,44.59
2022-09-21T17:40:45.375Z,44.65
2022-09-21T17:43:39.435Z,44.42
2022-09-21T17:46:20.942Z,44.31
2022-09-21T17:48:47.936Z,44.65
2022-09-21T17:51:34.774Z,44.39
2022-09-21T17:54:01.783Z,45.22
2022-09-21T17:56:46.316Z,45.85
2022-09-21T17:59:26.179Z,46.03
2022-09-21T18:01:53.062Z,46.10
2022-09-21T18:04:20.116Z,45.96
2022-09-21T18:06:47.896Z,46.25
2022-09-21T18:09:14.757Z,46.50
2022-09-21T18:12:01.854Z,46.55
2022-09-21T18:14:40.366Z,46.64
2022-09-21T18:17:44.884Z,46.78
2022-09-21T18:20:39.401Z,47.05
2022-09-21T18:23:22.364Z,47.26
2022-09-21T18:25:57.290Z,47.19
2022-09-21T18:28:39.550Z,47.33
2022-09-21T18:31:19.791Z,47.33
2022-09-21T18:33:59.821Z,47.44
2022-09-21T18:36:37.139Z,47.19
2022-09-21T18:39:09.493Z,47.30
2022-09-21T18:42:10.913Z,47.06
2022-09-21T18:44:48.612Z,46.80
2022-09-21T18:47:23.036Z,46.84
2022-09-21T18:50:07.953Z,46.81
2022-09-21T18:52:53.145Z,46.58
2022-09-21T18:55:28.704Z,46.58
2022-09-21T18:57:59.743Z,46.51
2022-09-21T19:00:34.740Z,46.38
2022-09-21T19:03:17.698Z,46.47
2022-09-21T19:06:10.181Z,46.21
2022-09-21T19:08:54.918Z,46.10
2022-09-21T19:11:54.876Z,46.25
2022-09-21T19:14:40.293Z,46.00
2022-09-21T19:17:27.962Z,45.94
2022-09-21T19:20:03.735Z,46.07
2022-09-21T19:22:33.181Z,46.23
2022-09-21T19:25:05.010Z,46.03
2022-09-21T19:27:46.990Z,46.15
2022-09-21T19:30:15.406Z,46.46
2022-09-21T19:32:50.104Z,46.43
2022-09-21T19:35:18.930Z,46.51
2022-09-21T19:37:47.170Z,46.62
2022-09-21T19:40:18.587Z,46.55
2022-09-21T19:43:06.227Z,46.39
2022-09-21T19:45:51.929Z,46.50
2022-09-21T19:48:31.705Z,46.50
2022-09-21T19:51:00.193Z,46.21
2022-09-21T19:53:45.552Z,46.39
2022-09-21T19:56:34.497Z,46.35
2022-09-21T19:59:20.611Z,46.51
2022-09-21T20:01:53.820Z,46.76
2022-09-21T20:04:42.488Z,46.57
2022-09-21T20:07:44.151Z,46.45
2022-09-21T20:10:49.998Z,46.34
2022-09-21T20:13:38.137Z,46.26
2022-09-21T20:16:19.261Z,46.28
2022-09-21T20:19:07.589Z,46.25
2022-09-21T20:21:40.177Z,46.20
2022-09-21T20:24:37.445Z,46.27
2022-09-21T20:27:34.491Z,46.35
2022-09-21T20:30:06.989Z,46.10
2022-09-21T20:32:36.366Z,46.05
2022-09-21T20:35:03.612Z,45.92
2022-09-21T20:37:39.596Z,45.90
2022-09-21T20:40:06.836Z,45.72
2022-09-21T20:42:38.167Z,45.78
2022-09-21T20:45:07.259Z,45.46
2022-09-21T20:47:34.612Z,45.45
2022-09-21T20:50:01.206Z,45.40
2022-09-21T20:52:27.756Z,45.58
2022-09-21T20:54:54.303Z,45.30
2022-09-21T20:57:21.453Z,45.23
2022-09-21T20:59:48.152Z,45.24
2022-09-21T21:02:19.412Z,45.20
2022-09-21T21:04:45.941Z,45.08
2022-09-21T21:07:13.191Z,45.16
2022-09-21T21:09:39.730Z,45.04
2022-09-21T21:12:06.382Z,45.17
2022-09-21T21:14:33.000Z,44.96
2022-09-21T21:16:59.614Z,45.19
2022-09-21T21:19:26.401Z,45.50
2022-09-21T21:21:52.942Z,45.78
2022-09-21T21:24:37.843Z,45.83
2022-09-21T21:27:04.991Z,45.45
2022-09-21T21:29:32.005Z,45.37
2022-09-21T21:31:59.649Z,45.41
2022-09-21T21:34:26.681Z,45.08
2022-09-21T21:36:55.248Z,45.37
2022-09-21T21:39:21.727Z,45.14
2022-09-21T21:41:48.782Z,45.37
2022-09-21T21:44:15.780Z,45.36
2022-09-21T21:46:43.229Z,45.07
2022-09-21T21:49:10.033Z,45.14
2022-09-21T21:51:36.601Z,45.12
2022-09-21T21:54:03.269Z,45.30
2022-09-21T21:56:29.943Z,45.32
2022-09-21T21:58:56.811Z,45.31
2022-09-21T22:01:26.650Z,45.14
2022-09-21T22:03:55.899Z,45.29
2022-09-21T22:06:23.488Z,45.64
2022-09-21T22:08:51.030Z,45.21
2022-09-21T22:11:19.224Z,45.13
2022-09-21T22:13:46.536Z,45.31
2022-09-21T22:16:34.259Z,45.31
2022-09-21T22:19:03.604Z,45.30
2022-09-21T22:21:38.876Z,45.34
2022-09-21T22:24:06.438Z,45.45
2022-09-21T22:26:40.458Z,45.40
2022-09-21T22:29:09.481Z,45.24
2022-09-21T22:31:39.512Z,45.38
2022-09-21T22:34:06.559Z,45.32
2022-09-21T22:36:34.647Z,45.43
2022-09-21T22:39:01.611Z,45.28
2022-09-21T22:41:30.547Z,45.17
2022-09-21T22:43:58.784Z,45.45
2022-09-21T22:46:27.238Z,45.42
2022-09-21T22:48:54.140Z,45.19
2022-09-21T22:51:21.455Z,45.27
2022-09-21T22:53:49.491Z,45.06
2022-09-21T22:56:21.451Z,45.07
2022-09-21T22:58:50.960Z,44.96
2022-09-21T23:01:25.477Z,45.04
2022-09-21T23:03:58.108Z,45.22
2022-09-21T23:06:45.000Z,45.11
2022-09-21T23:09:18.414Z,45.03
2022-09-21T23:11:53.565Z,45.02
2022-09-21T23:14:21.995Z,44.87
2022-09-21T23:16:51.604Z,45.17
2022-09-21T23:19:18.335Z,44.90
2022-09-21T23:24:13.410Z,45.02
2022-09-21T23:26:40.163Z,45.03
2022-09-21T23:29:11.948Z,44.86
2022-09-21T23:31:43.794Z,44.74
2022-09-21T23:34:14.638Z,45.03
2022-09-21T23:36:42.397Z,45.12
2022-09-21T23:39:11.683Z,44.98
2022-09-21T23:41:38.300Z,45.04
2022-09-21T23:44:06.092Z,44.90
2022-09-21T23:46:36.079Z,44.83
2022-09-21T23:49:02.889Z,44.74
2022-09-21T23:51:32.195Z,44.98
2022-09-21T23:53:59.560Z,44.64
2022-09-21T23:56:28.894Z,44.89
2022-09-21T23:58:56.952Z,44.90
